sensor_id;sensor_type;location;lat;lon;timestamp;P1;durP1;ratioP1;P2;durP2;ratioP2
2998;SDS011;1509;51.964;7.628;2023-02-11T00:00:55;45.80;;;26.73;;
2998;SDS011;1509;51.964;7.628;2023-02-11T00:03:21;48.73;;;27.10;;
2998;SDS011;1509;51.964;7.628;2023-02-11T00:05:59;52.00;;;26.10;;
2998;SDS011;1509;51.964;7.628;2023-02-11T00:08:25;50.20;;;25.83;;
2998;SDS011;1509;51.964;7.628;2023-02-11T00:10:51;45.57;;;26.37;;
2998;SDS011;1509;51.964;7.628;2023-02-11T00:13:18;45.53;;;25.43;;
2998;SDS011;1509;51.964;7.628;2023-02-11T00:15:43;43.73;;;24.90;;
2998;SDS011;1509;51.964;7.628;2023-02-11T00:18:09;52.60;;;25.70;;
2998;SDS011;1509;51.964;7.628;2023-02-11T00:20:37;46.07;;;25.30;;
2998;SDS011;1509;51.964;7.628;2023-02-11T00:23:03;46.30;;;25.20;;
2998;SDS011;1509;51.964;7.628;2023-02-11T00:25:29;52.23;;;25.70;;
2998;SDS011;1509;51.964;7.628;2023-02-11T00:27:54;56.27;;;27.40;;
2998;SDS011;1509;51.964;7.628;2023-02-11T00:30:20;54.63;;;26.83;;
2998;SDS011;1509;51.964;7.628;2023-02-11T00:32:46;47.13;;;29.27;;
2998;SDS011;1509;51.964;7.628;2023-02-11T00:35:11;49.13;;;26.70;;
2998;SDS011;1509;51.964;7.628;2023-02-11T00:37:37;59.53;;;27.17;;
2998;SDS011;1509;51.964;7.628;2023-02-11T00:40:03;52.97;;;27.47;;
2998;SDS011;1509;51.964;7.628;2023-02-11T00:42:29;48.50;;;25.20;;
2998;SDS011;1509;51.964;7.628;2023-02-11T00:44:55;50.53;;;25.40;;
2998;SDS011;1509;51.964;7.628;2023-02-11T00:47:20;42.27;;;26.00;;
2998;SDS011;1509;51.964;7.628;2023-02-11T00:49:46;53.60;;;27.93;;
2998;SDS011;1509;51.964;7.628;2023-02-11T00:52:11;56.30;;;26.07;;
2998;SDS011;1509;51.964;7.628;2023-02-11T00:54:37;50.63;;;24.60;;
2998;SDS011;1509;51.964;7.628;2023-02-11T00:57:02;44.57;;;25.30;;
2998;SDS011;1509;51.964;7.628;2023-02-11T00:59:28;41.67;;;24.70;;
2998;SDS011;1509;51.964;7.628;2023-02-11T01:01:54;48.67;;;24.87;;
2998;SDS011;1509;51.964;7.628;2023-02-11T01:04:20;46.20;;;26.87;;
2998;SDS011;1509;51.964;7.628;2023-02-11T01:06:45;44.60;;;25.00;;
2998;SDS011;1509;51.964;7.628;2023-02-11T01:09:11;47.83;;;26.30;;
2998;SDS011;1509;51.964;7.628;2023-02-11T01:11:36;43.43;;;25.07;;
2998;SDS011;1509;51.964;7.628;2023-02-11T01:14:02;48.70;;;25.80;;
2998;SDS011;1509;51.964;7.628;2023-02-11T01:16:28;42.63;;;24.37;;
2998;SDS011;1509;51.964;7.628;2023-02-11T01:18:53;44.87;;;26.87;;
2998;SDS011;1509;51.964;7.628;2023-02-11T01:21:19;45.70;;;26.10;;
2998;SDS011;1509;51.964;7.628;2023-02-11T01:23:45;42.50;;;24.40;;
2998;SDS011;1509;51.964;7.628;2023-02-11T01:26:10;43.57;;;24.20;;
2998;SDS011;1509;51.964;7.628;2023-02-11T01:28:36;56.90;;;26.87;;
2998;SDS011;1509;51.964;7.628;2023-02-11T01:31:02;54.37;;;25.43;;
2998;SDS011;1509;51.964;7.628;2023-02-11T01:33:28;52.93;;;24.63;;
2998;SDS011;1509;51.964;7.628;2023-02-11T01:35:54;47.30;;;25.60;;
2998;SDS011;1509;51.964;7.628;2023-02-11T01:38:21;42.83;;;25.03;;
2998;SDS011;1509;51.964;7.628;2023-02-11T01:40:49;47.70;;;24.03;;
2998;SDS011;1509;51.964;7.628;2023-02-11T01:43:44;46.73;;;26.23;;
2998;SDS011;1509;51.964;7.628;2023-02-11T01:46:12;49.30;;;22.47;;
2998;SDS011;1509;51.964;7.628;2023-02-11T01:48:44;40.47;;;23.80;;
2998;SDS011;1509;51.964;7.628;2023-02-11T01:51:14;46.40;;;23.80;;
2998;SDS011;1509;51.964;7.628;2023-02-11T01:53:44;42.70;;;23.13;;
2998;SDS011;1509;51.964;7.628;2023-02-11T01:56:30;39.30;;;22.53;;
2998;SDS011;1509;51.964;7.628;2023-02-11T01:59:19;45.97;;;23.93;;
2998;SDS011;1509;51.964;7.628;2023-02-11T02:01:52;33.77;;;22.17;;
2998;SDS011;1509;51.964;7.628;2023-02-11T02:04:22;39.07;;;24.80;;
2998;SDS011;1509;51.964;7.628;2023-02-11T02:06:56;40.60;;;23.70;;
2998;SDS011;1509;51.964;7.628;2023-02-11T02:09:28;39.23;;;24.37;;
2998;SDS011;1509;51.964;7.628;2023-02-11T02:11:58;33.83;;;21.37;;
2998;SDS011;1509;51.964;7.628;2023-02-11T02:14:23;36.77;;;21.57;;
2998;SDS011;1509;51.964;7.628;2023-02-11T02:16:50;41.27;;;22.97;;
2998;SDS011;1509;51.964;7.628;2023-02-11T02:28:26;41.40;;;22.70;;
2998;SDS011;1509;51.964;7.628;2023-02-11T02:36:21;39.77;;;21.07;;
2998;SDS011;1509;51.964;7.628;2023-02-11T02:38:56;38.43;;;22.10;;
2998;SDS011;1509;51.964;7.628;2023-02-11T02:41:46;37.83;;;20.23;;
2998;SDS011;1509;51.964;7.628;2023-02-11T02:44:14;38.40;;;20.43;;
2998;SDS011;1509;51.964;7.628;2023-02-11T02:46:39;36.77;;;19.60;;
2998;SDS011;1509;51.964;7.628;2023-02-11T02:49:06;34.00;;;20.63;;
2998;SDS011;1509;51.964;7.628;2023-02-11T03:00:13;31.40;;;19.03;;
2998;SDS011;1509;51.964;7.628;2023-02-11T03:05:46;28.40;;;18.70;;
2998;SDS011;1509;51.964;7.628;2023-02-11T03:11:11;31.40;;;19.53;;
2998;SDS011;1509;51.964;7.628;2023-02-11T03:13:41;34.00;;;19.70;;
2998;SDS011;1509;51.964;7.628;2023-02-11T03:16:12;38.23;;;18.87;;
2998;SDS011;1509;51.964;7.628;2023-02-11T03:18:41;33.20;;;19.47;;
2998;SDS011;1509;51.964;7.628;2023-02-11T03:21:12;31.50;;;18.40;;
2998;SDS011;1509;51.964;7.628;2023-02-11T03:23:41;29.80;;;18.17;;
2998;SDS011;1509;51.964;7.628;2023-02-11T03:26:20;33.40;;;18.67;;
2998;SDS011;1509;51.964;7.628;2023-02-11T03:28:54;34.07;;;17.57;;
2998;SDS011;1509;51.964;7.628;2023-02-11T03:36:47;31.87;;;18.80;;
2998;SDS011;1509;51.964;7.628;2023-02-11T03:39:38;33.13;;;17.53;;
2998;SDS011;1509;51.964;7.628;2023-02-11T03:42:08;30.27;;;19.10;;
2998;SDS011;1509;51.964;7.628;2023-02-11T03:44:39;29.33;;;18.47;;
2998;SDS011;1509;51.964;7.628;2023-02-11T03:47:18;37.60;;;17.93;;
2998;SDS011;1509;51.964;7.628;2023-02-11T03:49:48;32.97;;;18.60;;
2998;SDS011;1509;51.964;7.628;2023-02-11T03:52:17;32.83;;;18.20;;
2998;SDS011;1509;51.964;7.628;2023-02-11T03:54:44;31.77;;;18.30;;
2998;SDS011;1509;51.964;7.628;2023-02-11T03:57:12;29.47;;;18.47;;
2998;SDS011;1509;51.964;7.628;2023-02-11T03:59:57;36.57;;;19.73;;
2998;SDS011;1509;51.964;7.628;2023-02-11T04:02:24;33.40;;;19.37;;
2998;SDS011;1509;51.964;7.628;2023-02-11T04:04:54;27.70;;;18.60;;
2998;SDS011;1509;51.964;7.628;2023-02-11T04:07:19;35.33;;;19.50;;
2998;SDS011;1509;51.964;7.628;2023-02-11T04:09:45;28.57;;;18.13;;
2998;SDS011;1509;51.964;7.628;2023-02-11T04:12:11;41.57;;;19.40;;
2998;SDS011;1509;51.964;7.628;2023-02-11T04:14:36;38.10;;;22.10;;
2998;SDS011;1509;51.964;7.628;2023-02-11T04:17:02;31.03;;;20.07;;
2998;SDS011;1509;51.964;7.628;2023-02-11T04:19:28;32.80;;;19.53;;
2998;SDS011;1509;51.964;7.628;2023-02-11T04:21:54;31.90;;;19.03;;
2998;SDS011;1509;51.964;7.628;2023-02-11T04:24:19;37.53;;;19.30;;
2998;SDS011;1509;51.964;7.628;2023-02-11T04:26:45;41.83;;;19.43;;
2998;SDS011;1509;51.964;7.628;2023-02-11T04:29:10;32.00;;;18.90;;
2998;SDS011;1509;51.964;7.628;2023-02-11T04:31:36;32.73;;;21.10;;
2998;SDS011;1509;51.964;7.628;2023-02-11T04:34:02;30.80;;;19.13;;
2998;SDS011;1509;51.964;7.628;2023-02-11T04:36:27;39.10;;;20.90;;
2998;SDS011;1509;51.964;7.628;2023-02-11T04:38:53;37.77;;;20.83;;
2998;SDS011;1509;51.964;7.628;2023-02-11T04:41:18;35.90;;;21.40;;
2998;SDS011;1509;51.964;7.628;2023-02-11T04:43:44;32.47;;;19.90;;
2998;SDS011;1509;51.964;7.628;2023-02-11T04:46:10;34.90;;;20.80;;
2998;SDS011;1509;51.964;7.628;2023-02-11T04:48:35;38.23;;;20.73;;
2998;SDS011;1509;51.964;7.628;2023-02-11T04:51:01;38.33;;;18.60;;
2998;SDS011;1509;51.964;7.628;2023-02-11T04:53:26;35.83;;;18.37;;
2998;SDS011;1509;51.964;7.628;2023-02-11T04:55:52;35.50;;;20.90;;
2998;SDS011;1509;51.964;7.628;2023-02-11T04:58:18;42.40;;;22.90;;
2998;SDS011;1509;51.964;7.628;2023-02-11T05:00:44;35.37;;;20.60;;
2998;SDS011;1509;51.964;7.628;2023-02-11T05:03:10;39.13;;;20.37;;
2998;SDS011;1509;51.964;7.628;2023-02-11T05:05:39;31.17;;;19.70;;
2998;SDS011;1509;51.964;7.628;2023-02-11T05:08:06;36.13;;;19.67;;
2998;SDS011;1509;51.964;7.628;2023-02-11T05:10:32;33.13;;;19.50;;
2998;SDS011;1509;51.964;7.628;2023-02-11T05:12:59;32.03;;;20.67;;
2998;SDS011;1509;51.964;7.628;2023-02-11T05:15:24;36.43;;;20.37;;
2998;SDS011;1509;51.964;7.628;2023-02-11T05:17:50;31.97;;;17.80;;
2998;SDS011;1509;51.964;7.628;2023-02-11T05:20:16;32.03;;;19.97;;
2998;SDS011;1509;51.964;7.628;2023-02-11T05:22:42;29.93;;;19.30;;
2998;SDS011;1509;51.964;7.628;2023-02-11T05:25:07;32.73;;;18.60;;
2998;SDS011;1509;51.964;7.628;2023-02-11T05:27:33;32.73;;;18.67;;
2998;SDS011;1509;51.964;7.628;2023-02-11T05:29:59;40.53;;;20.17;;
2998;SDS011;1509;51.964;7.628;2023-02-11T05:32:24;31.23;;;20.07;;
2998;SDS011;1509;51.964;7.628;2023-02-11T05:34:50;35.37;;;20.30;;
2998;SDS011;1509;51.964;7.628;2023-02-11T05:37:16;38.83;;;19.80;;
2998;SDS011;1509;51.964;7.628;2023-02-11T05:39:41;29.87;;;20.40;;
2998;SDS011;1509;51.964;7.628;2023-02-11T05:42:07;39.67;;;19.93;;
2998;SDS011;1509;51.964;7.628;2023-02-11T05:44:33;31.00;;;18.93;;
2998;SDS011;1509;51.964;7.628;2023-02-11T05:46:58;36.80;;;19.93;;
2998;SDS011;1509;51.964;7.628;2023-02-11T05:49:24;28.83;;;17.80;;
2998;SDS011;1509;51.964;7.628;2023-02-11T05:51:49;28.50;;;19.17;;
2998;SDS011;1509;51.964;7.628;2023-02-11T05:54:15;32.00;;;19.20;;
2998;SDS011;1509;51.964;7.628;2023-02-11T05:56:41;45.93;;;20.30;;
2998;SDS011;1509;51.964;7.628;2023-02-11T05:59:06;33.77;;;19.10;;
2998;SDS011;1509;51.964;7.628;2023-02-11T06:01:32;32.27;;;17.50;;
2998;SDS011;1509;51.964;7.628;2023-02-11T06:03:57;26.50;;;17.87;;
2998;SDS011;1509;51.964;7.628;2023-02-11T06:06:23;28.80;;;17.60;;
2998;SDS011;1509;51.964;7.628;2023-02-11T06:08:49;29.33;;;18.70;;
2998;SDS011;1509;51.964;7.628;2023-02-11T06:11:15;37.43;;;20.10;;
2998;SDS011;1509;51.964;7.628;2023-02-11T06:13:41;39.73;;;19.77;;
2998;SDS011;1509;51.964;7.628;2023-02-11T06:16:07;33.27;;;19.37;;
2998;SDS011;1509;51.964;7.628;2023-02-11T06:18:33;38.50;;;19.60;;
2998;SDS011;1509;51.964;7.628;2023-02-11T06:20:59;31.87;;;20.90;;
2998;SDS011;1509;51.964;7.628;2023-02-11T06:23:25;30.53;;;19.77;;
2998;SDS011;1509;51.964;7.628;2023-02-11T06:25:51;40.23;;;21.37;;
2998;SDS011;1509;51.964;7.628;2023-02-11T06:28:16;42.47;;;21.60;;
2998;SDS011;1509;51.964;7.628;2023-02-11T06:30:42;38.80;;;21.07;;
2998;SDS011;1509;51.964;7.628;2023-02-11T06:33:08;37.77;;;21.60;;
2998;SDS011;1509;51.964;7.628;2023-02-11T06:35:33;51.83;;;21.70;;
2998;SDS011;1509;51.964;7.628;2023-02-11T06:38:01;35.90;;;20.90;;
2998;SDS011;1509;51.964;7.628;2023-02-11T06:40:27;44.20;;;22.70;;
2998;SDS011;1509;51.964;7.628;2023-02-11T06:42:53;39.10;;;22.97;;
2998;SDS011;1509;51.964;7.628;2023-02-11T06:45:18;52.47;;;22.97;;
2998;SDS011;1509;51.964;7.628;2023-02-11T06:47:44;35.60;;;20.80;;
2998;SDS011;1509;51.964;7.628;2023-02-11T06:50:11;39.73;;;21.77;;
2998;SDS011;1509;51.964;7.628;2023-02-11T06:52:37;42.03;;;23.80;;
2998;SDS011;1509;51.964;7.628;2023-02-11T06:55:03;41.00;;;23.33;;
2998;SDS011;1509;51.964;7.628;2023-02-11T06:57:29;39.50;;;21.40;;
2998;SDS011;1509;51.964;7.628;2023-02-11T06:59:55;41.97;;;23.07;;
2998;SDS011;1509;51.964;7.628;2023-02-11T07:02:21;47.37;;;23.57;;
2998;SDS011;1509;51.964;7.628;2023-02-11T07:04:47;46.57;;;24.43;;
2998;SDS011;1509;51.964;7.628;2023-02-11T07:07:12;42.80;;;24.60;;
2998;SDS011;1509;51.964;7.628;2023-02-11T07:09:38;39.60;;;21.67;;
2998;SDS011;1509;51.964;7.628;2023-02-11T07:12:03;48.43;;;24.53;;
2998;SDS011;1509;51.964;7.628;2023-02-11T07:14:29;50.80;;;25.63;;
2998;SDS011;1509;51.964;7.628;2023-02-11T07:16:55;48.83;;;24.63;;
2998;SDS011;1509;51.964;7.628;2023-02-11T07:19:20;38.33;;;23.70;;
2998;SDS011;1509;51.964;7.628;2023-02-11T07:21:46;47.40;;;24.50;;
2998;SDS011;1509;51.964;7.628;2023-02-11T07:24:12;56.47;;;24.70;;
2998;SDS011;1509;51.964;7.628;2023-02-11T07:26:38;52.40;;;24.40;;
2998;SDS011;1509;51.964;7.628;2023-02-11T07:29:04;45.33;;;24.53;;
2998;SDS011;1509;51.964;7.628;2023-02-11T07:31:29;40.90;;;24.23;;
2998;SDS011;1509;51.964;7.628;2023-02-11T07:33:56;50.10;;;27.03;;
2998;SDS011;1509;51.964;7.628;2023-02-11T07:36:24;45.73;;;26.20;;
2998;SDS011;1509;51.964;7.628;2023-02-11T07:38:50;49.60;;;25.77;;
2998;SDS011;1509;51.964;7.628;2023-02-11T07:41:17;44.13;;;22.70;;
2998;SDS011;1509;51.964;7.628;2023-02-11T07:43:45;46.93;;;25.20;;
2998;SDS011;1509;51.964;7.628;2023-02-11T07:46:45;47.90;;;24.90;;
2998;SDS011;1509;51.964;7.628;2023-02-11T07:49:07;48.53;;;24.70;;
2998;SDS011;1509;51.964;7.628;2023-02-11T07:51:33;39.53;;;22.10;;
2998;SDS011;1509;51.964;7.628;2023-02-11T07:53:58;41.10;;;25.03;;
2998;SDS011;1509;51.964;7.628;2023-02-11T07:56:27;40.13;;;23.60;;
2998;SDS011;1509;51.964;7.628;2023-02-11T07:58:54;52.63;;;25.77;;
2998;SDS011;1509;51.964;7.628;2023-02-11T08:01:24;46.73;;;24.73;;
2998;SDS011;1509;51.964;7.628;2023-02-11T08:03:52;50.73;;;26.47;;
2998;SDS011;1509;51.964;7.628;2023-02-11T08:06:20;46.70;;;26.33;;
2998;SDS011;1509;51.964;7.628;2023-02-11T08:08:47;46.17;;;23.37;;
2998;SDS011;1509;51.964;7.628;2023-02-11T08:11:14;40.80;;;24.77;;
2998;SDS011;1509;51.964;7.628;2023-02-11T08:13:41;50.87;;;24.43;;
2998;SDS011;1509;51.964;7.628;2023-02-11T08:16:08;42.37;;;23.73;;
2998;SDS011;1509;51.964;7.628;2023-02-11T08:18:34;55.87;;;27.67;;
2998;SDS011;1509;51.964;7.628;2023-02-11T08:21:04;49.30;;;24.90;;
2998;SDS011;1509;51.964;7.628;2023-02-11T08:23:36;48.17;;;26.47;;
2998;SDS011;1509;51.964;7.628;2023-02-11T08:26:03;48.83;;;25.80;;
2998;SDS011;1509;51.964;7.628;2023-02-11T08:28:30;54.60;;;24.73;;
2998;SDS011;1509;51.964;7.628;2023-02-11T08:31:03;45.20;;;24.07;;
2998;SDS011;1509;51.964;7.628;2023-02-11T08:33:29;44.13;;;24.30;;
2998;SDS011;1509;51.964;7.628;2023-02-11T08:35:55;44.37;;;22.97;;
2998;SDS011;1509;51.964;7.628;2023-02-11T08:38:21;49.87;;;26.67;;
2998;SDS011;1509;51.964;7.628;2023-02-11T08:40:46;51.47;;;24.60;;
2998;SDS011;1509;51.964;7.628;2023-02-11T08:43:13;46.87;;;25.23;;
2998;SDS011;1509;51.964;7.628;2023-02-11T08:45:38;47.80;;;24.30;;
2998;SDS011;1509;51.964;7.628;2023-02-11T08:48:04;43.17;;;24.77;;
2998;SDS011;1509;51.964;7.628;2023-02-11T08:50:30;44.77;;;26.57;;
2998;SDS011;1509;51.964;7.628;2023-02-11T08:52:56;43.83;;;24.80;;
2998;SDS011;1509;51.964;7.628;2023-02-11T08:55:24;41.30;;;24.03;;
2998;SDS011;1509;51.964;7.628;2023-02-11T08:57:50;62.10;;;25.10;;
2998;SDS011;1509;51.964;7.628;2023-02-11T09:00:15;46.67;;;23.30;;
2998;SDS011;1509;51.964;7.628;2023-02-11T09:02:42;53.20;;;26.07;;
2998;SDS011;1509;51.964;7.628;2023-02-11T09:05:08;37.10;;;21.07;;
2998;SDS011;1509;51.964;7.628;2023-02-11T09:07:33;43.23;;;25.70;;
2998;SDS011;1509;51.964;7.628;2023-02-11T09:09:59;55.00;;;25.30;;
2998;SDS011;1509;51.964;7.628;2023-02-11T09:12:25;53.93;;;26.40;;
2998;SDS011;1509;51.964;7.628;2023-02-11T09:14:50;53.23;;;25.30;;
2998;SDS011;1509;51.964;7.628;2023-02-11T09:17:16;58.70;;;23.77;;
2998;SDS011;1509;51.964;7.628;2023-02-11T09:19:41;42.93;;;24.10;;
2998;SDS011;1509;51.964;7.628;2023-02-11T09:22:07;48.43;;;24.30;;
2998;SDS011;1509;51.964;7.628;2023-02-11T09:24:33;42.10;;;23.27;;
2998;SDS011;1509;51.964;7.628;2023-02-11T09:26:58;55.30;;;25.13;;
2998;SDS011;1509;51.964;7.628;2023-02-11T09:29:24;47.10;;;23.40;;
2998;SDS011;1509;51.964;7.628;2023-02-11T09:31:50;49.03;;;23.07;;
2998;SDS011;1509;51.964;7.628;2023-02-11T09:34:15;46.47;;;24.13;;
2998;SDS011;1509;51.964;7.628;2023-02-11T09:36:42;43.67;;;23.43;;
2998;SDS011;1509;51.964;7.628;2023-02-11T09:39:10;53.60;;;23.93;;
2998;SDS011;1509;51.964;7.628;2023-02-11T09:41:58;44.07;;;24.67;;
2998;SDS011;1509;51.964;7.628;2023-02-11T09:44:46;61.43;;;25.90;;
2998;SDS011;1509;51.964;7.628;2023-02-11T09:47:18;49.77;;;24.60;;
2998;SDS011;1509;51.964;7.628;2023-02-11T09:55:22;48.03;;;22.97;;
2998;SDS011;1509;51.964;7.628;2023-02-11T09:57:55;53.50;;;26.23;;
2998;SDS011;1509;51.964;7.628;2023-02-11T10:00:23;45.13;;;25.20;;
2998;SDS011;1509;51.964;7.628;2023-02-11T10:03:19;49.87;;;25.63;;
2998;SDS011;1509;51.964;7.628;2023-02-11T10:06:03;49.63;;;26.20;;
2998;SDS011;1509;51.964;7.628;2023-02-11T10:16:46;47.07;;;25.53;;
2998;SDS011;1509;51.964;7.628;2023-02-11T10:24:55;52.50;;;27.17;;
2998;SDS011;1509;51.964;7.628;2023-02-11T10:27:26;53.53;;;29.03;;
2998;SDS011;1509;51.964;7.628;2023-02-11T10:30:15;49.13;;;25.07;;
2998;SDS011;1509;51.964;7.628;2023-02-11T10:32:48;47.83;;;26.00;;
2998;SDS011;1509;51.964;7.628;2023-02-11T10:35:24;58.47;;;26.30;;
2998;SDS011;1509;51.964;7.628;2023-02-11T10:37:51;51.50;;;24.83;;
2998;SDS011;1509;51.964;7.628;2023-02-11T10:40:20;43.50;;;25.27;;
2998;SDS011;1509;51.964;7.628;2023-02-11T10:42:49;51.93;;;26.17;;
2998;SDS011;1509;51.964;7.628;2023-02-11T10:45:18;41.90;;;24.10;;
2998;SDS011;1509;51.964;7.628;2023-02-11T10:47:57;53.10;;;27.27;;
2998;SDS011;1509;51.964;7.628;2023-02-11T10:50:28;43.30;;;23.10;;
2998;SDS011;1509;51.964;7.628;2023-02-11T10:53:16;50.60;;;24.37;;
2998;SDS011;1509;51.964;7.628;2023-02-11T10:56:03;51.83;;;27.47;;
2998;SDS011;1509;51.964;7.628;2023-02-11T10:58:31;47.97;;;23.57;;
2998;SDS011;1509;51.964;7.628;2023-02-11T11:01:05;45.10;;;24.70;;
2998;SDS011;1509;51.964;7.628;2023-02-11T11:03:33;41.67;;;25.43;;
2998;SDS011;1509;51.964;7.628;2023-02-11T11:06:04;47.60;;;25.20;;
2998;SDS011;1509;51.964;7.628;2023-02-11T11:08:39;54.07;;;29.10;;
2998;SDS011;1509;51.964;7.628;2023-02-11T11:11:14;50.63;;;27.03;;
2998;SDS011;1509;51.964;7.628;2023-02-11T11:16:21;51.13;;;27.07;;
2998;SDS011;1509;51.964;7.628;2023-02-11T11:18:48;49.47;;;27.40;;
2998;SDS011;1509;51.964;7.628;2023-02-11T11:21:25;52.50;;;26.07;;
2998;SDS011;1509;51.964;7.628;2023-02-11T11:23:58;48.50;;;27.23;;
2998;SDS011;1509;51.964;7.628;2023-02-11T11:26:38;53.17;;;25.27;;
2998;SDS011;1509;51.964;7.628;2023-02-11T11:29:07;49.70;;;27.97;;
2998;SDS011;1509;51.964;7.628;2023-02-11T11:31:47;56.07;;;25.87;;
2998;SDS011;1509;51.964;7.628;2023-02-11T11:37:01;56.50;;;27.40;;
2998;SDS011;1509;51.964;7.628;2023-02-11T11:39:39;54.33;;;26.83;;
2998;SDS011;1509;51.964;7.628;2023-02-11T11:42:20;51.83;;;28.37;;
2998;SDS011;1509;51.964;7.628;2023-02-11T11:45:00;59.17;;;27.60;;
2998;SDS011;1509;51.964;7.628;2023-02-11T11:50:43;53.23;;;29.53;;
2998;SDS011;1509;51.964;7.628;2023-02-11T11:53:14;60.47;;;28.03;;
2998;SDS011;1509;51.964;7.628;2023-02-11T11:58:42;50.00;;;27.23;;
2998;SDS011;1509;51.964;7.628;2023-02-11T12:01:21;57.50;;;28.80;;
2998;SDS011;1509;51.964;7.628;2023-02-11T12:16:03;47.27;;;25.00;;
2998;SDS011;1509;51.964;7.628;2023-02-11T12:18:55;52.27;;;27.63;;
2998;SDS011;1509;51.964;7.628;2023-02-11T12:21:47;48.77;;;27.03;;
2998;SDS011;1509;51.964;7.628;2023-02-11T12:36:26;40.60;;;24.20;;
2998;SDS011;1509;51.964;7.628;2023-02-11T12:39:33;53.07;;;26.67;;
2998;SDS011;1509;51.964;7.628;2023-02-11T12:42:19;46.87;;;25.97;;
2998;SDS011;1509;51.964;7.628;2023-02-11T12:53:20;50.93;;;28.50;;
2998;SDS011;1509;51.964;7.628;2023-02-11T12:56:00;45.97;;;25.90;;
2998;SDS011;1509;51.964;7.628;2023-02-11T12:58:51;47.10;;;25.73;;
2998;SDS011;1509;51.964;7.628;2023-02-11T13:01:21;47.10;;;25.80;;
2998;SDS011;1509;51.964;7.628;2023-02-11T13:07:13;46.70;;;26.20;;
2998;SDS011;1509;51.964;7.628;2023-02-11T13:09:44;45.73;;;26.23;;
2998;SDS011;1509;51.964;7.628;2023-02-11T13:12:18;47.90;;;26.63;;
2998;SDS011;1509;51.964;7.628;2023-02-11T13:15:05;47.53;;;26.27;;
2998;SDS011;1509;51.964;7.628;2023-02-11T13:17:34;51.00;;;25.53;;
2998;SDS011;1509;51.964;7.628;2023-02-11T13:20:17;48.93;;;25.77;;
2998;SDS011;1509;51.964;7.628;2023-02-11T13:22:50;50.97;;;26.67;;
2998;SDS011;1509;51.964;7.628;2023-02-11T13:25:30;44.53;;;26.60;;
2998;SDS011;1509;51.964;7.628;2023-02-11T13:30:47;47.00;;;25.70;;
2998;SDS011;1509;51.964;7.628;2023-02-11T13:33:31;48.50;;;25.33;;
2998;SDS011;1509;51.964;7.628;2023-02-11T13:38:28;45.20;;;24.80;;
2998;SDS011;1509;51.964;7.628;2023-02-11T13:41:15;52.83;;;25.23;;
2998;SDS011;1509;51.964;7.628;2023-02-11T13:44:02;45.47;;;23.83;;
2998;SDS011;1509;51.964;7.628;2023-02-11T13:47:03;46.63;;;23.67;;
2998;SDS011;1509;51.964;7.628;2023-02-11T13:49:36;50.27;;;22.53;;
2998;SDS011;1509;51.964;7.628;2023-02-11T13:55:06;49.80;;;23.30;;
2998;SDS011;1509;51.964;7.628;2023-02-11T14:00:43;36.60;;;20.57;;
2998;SDS011;1509;51.964;7.628;2023-02-11T14:19:42;39.60;;;22.07;;
2998;SDS011;1509;51.964;7.628;2023-02-11T14:35:42;35.17;;;19.97;;
2998;SDS011;1509;51.964;7.628;2023-02-11T14:40:59;39.10;;;21.50;;
2998;SDS011;1509;51.964;7.628;2023-02-11T14:43:47;34.23;;;20.93;;
2998;SDS011;1509;51.964;7.628;2023-02-11T14:46:20;33.80;;;18.37;;
2998;SDS011;1509;51.964;7.628;2023-02-11T14:48:49;36.60;;;19.83;;
2998;SDS011;1509;51.964;7.628;2023-02-11T14:51:22;38.27;;;20.70;;
2998;SDS011;1509;51.964;7.628;2023-02-11T14:53:52;33.70;;;19.00;;
2998;SDS011;1509;51.964;7.628;2023-02-11T14:58:52;36.00;;;21.10;;
2998;SDS011;1509;51.964;7.628;2023-02-11T15:01:21;33.90;;;18.43;;
2998;SDS011;1509;51.964;7.628;2023-02-11T15:03:54;35.20;;;18.67;;
2998;SDS011;1509;51.964;7.628;2023-02-11T15:06:30;34.90;;;19.10;;
2998;SDS011;1509;51.964;7.628;2023-02-11T15:09:13;34.30;;;18.60;;
2998;SDS011;1509;51.964;7.628;2023-02-11T15:11:49;30.03;;;20.63;;
2998;SDS011;1509;51.964;7.628;2023-02-11T15:16:52;36.03;;;19.53;;
2998;SDS011;1509;51.964;7.628;2023-02-11T15:21:48;35.47;;;21.07;;
2998;SDS011;1509;51.964;7.628;2023-02-11T15:29:25;33.67;;;19.53;;
2998;SDS011;1509;51.964;7.628;2023-02-11T15:32:22;36.63;;;20.03;;
2998;SDS011;1509;51.964;7.628;2023-02-11T15:34:49;49.20;;;21.17;;
2998;SDS011;1509;51.964;7.628;2023-02-11T15:37:23;36.67;;;21.03;;
2998;SDS011;1509;51.964;7.628;2023-02-11T15:39:51;39.00;;;21.57;;
2998;SDS011;1509;51.964;7.628;2023-02-11T15:42:18;32.63;;;18.70;;
2998;SDS011;1509;51.964;7.628;2023-02-11T15:48:15;37.33;;;21.57;;
2998;SDS011;1509;51.964;7.628;2023-02-11T15:50:51;33.00;;;19.60;;
2998;SDS011;1509;51.964;7.628;2023-02-11T15:53:24;32.30;;;19.83;;
2998;SDS011;1509;51.964;7.628;2023-02-11T15:55:56;39.30;;;22.80;;
2998;SDS011;1509;51.964;7.628;2023-02-11T15:58:26;37.17;;;21.27;;
2998;SDS011;1509;51.964;7.628;2023-02-11T16:00:52;34.03;;;19.50;;
2998;SDS011;1509;51.964;7.628;2023-02-11T16:03:24;36.70;;;19.10;;
2998;SDS011;1509;51.964;7.628;2023-02-11T16:05:56;35.27;;;20.60;;
2998;SDS011;1509;51.964;7.628;2023-02-11T16:08:42;39.00;;;20.60;;
2998;SDS011;1509;51.964;7.628;2023-02-11T16:11:28;39.73;;;20.77;;
2998;SDS011;1509;51.964;7.628;2023-02-11T16:13:56;35.83;;;20.40;;
2998;SDS011;1509;51.964;7.628;2023-02-11T16:16:29;34.17;;;20.57;;
2998;SDS011;1509;51.964;7.628;2023-02-11T16:18:58;45.00;;;22.67;;
2998;SDS011;1509;51.964;7.628;2023-02-11T16:21:29;41.07;;;23.23;;
2998;SDS011;1509;51.964;7.628;2023-02-11T16:24:02;31.87;;;20.27;;
2998;SDS011;1509;51.964;7.628;2023-02-11T16:26:37;45.10;;;23.77;;
2998;SDS011;1509;51.964;7.628;2023-02-11T16:29:12;44.47;;;24.17;;
2998;SDS011;1509;51.964;7.628;2023-02-11T16:31:41;44.07;;;23.50;;
2998;SDS011;1509;51.964;7.628;2023-02-11T16:34:24;39.07;;;22.40;;
2998;SDS011;1509;51.964;7.628;2023-02-11T16:36:50;41.80;;;24.20;;
2998;SDS011;1509;51.964;7.628;2023-02-11T16:39:17;39.13;;;24.10;;
2998;SDS011;1509;51.964;7.628;2023-02-11T16:41:47;35.70;;;22.87;;
2998;SDS011;1509;51.964;7.628;2023-02-11T16:44:17;43.57;;;26.90;;
2998;SDS011;1509;51.964;7.628;2023-02-11T16:46:43;41.73;;;24.37;;
2998;SDS011;1509;51.964;7.628;2023-02-11T16:49:22;45.73;;;25.60;;
2998;SDS011;1509;51.964;7.628;2023-02-11T16:51:51;41.77;;;23.80;;
2998;SDS011;1509;51.964;7.628;2023-02-11T16:54:20;45.23;;;24.90;;
2998;SDS011;1509;51.964;7.628;2023-02-11T16:56:46;49.43;;;25.10;;
2998;SDS011;1509;51.964;7.628;2023-02-11T16:59:13;40.90;;;24.50;;
2998;SDS011;1509;51.964;7.628;2023-02-11T17:01:39;43.27;;;23.20;;
2998;SDS011;1509;51.964;7.628;2023-02-11T17:04:06;51.40;;;26.03;;
2998;SDS011;1509;51.964;7.628;2023-02-11T17:06:37;41.13;;;24.57;;
2998;SDS011;1509;51.964;7.628;2023-02-11T17:09:03;45.50;;;24.17;;
2998;SDS011;1509;51.964;7.628;2023-02-11T17:11:30;40.97;;;25.83;;
2998;SDS011;1509;51.964;7.628;2023-02-11T17:13:56;46.10;;;26.93;;
2998;SDS011;1509;51.964;7.628;2023-02-11T17:16:21;41.53;;;26.20;;
2998;SDS011;1509;51.964;7.628;2023-02-11T17:18:49;43.53;;;26.40;;
2998;SDS011;1509;51.964;7.628;2023-02-11T17:21:15;41.77;;;25.00;;
2998;SDS011;1509;51.964;7.628;2023-02-11T17:23:41;43.03;;;24.10;;
2998;SDS011;1509;51.964;7.628;2023-02-11T17:26:07;42.77;;;24.80;;
2998;SDS011;1509;51.964;7.628;2023-02-11T17:28:33;44.47;;;24.33;;
2998;SDS011;1509;51.964;7.628;2023-02-11T17:30:59;42.43;;;26.97;;
2998;SDS011;1509;51.964;7.628;2023-02-11T17:33:25;39.70;;;24.17;;
2998;SDS011;1509;51.964;7.628;2023-02-11T17:35:51;43.50;;;24.53;;
2998;SDS011;1509;51.964;7.628;2023-02-11T17:38:16;41.27;;;25.97;;
2998;SDS011;1509;51.964;7.628;2023-02-11T17:40:42;43.87;;;26.17;;
2998;SDS011;1509;51.964;7.628;2023-02-11T17:43:07;41.23;;;23.37;;
2998;SDS011;1509;51.964;7.628;2023-02-11T17:45:33;43.20;;;23.07;;